Weather at Leysin Heliport

Public forecast

Using degrees Celsius for public forecast. Weather courtesy of forecast.io.

Closest aviation weather report (METAR) to Leysin Heliport

Closest report is Sion Airport, 14.7 nm (27.2 km) ESE. Retrieved 2020/09/24 05:20 UTC (22 minutes ago):

LSGS 240520Z 07005KT 9999 BKN100 14/14 Q1012

Closest aviation forecast (TAF) to Leysin Heliport

Forecast is more than 12 hours old.

Closest forecast is Payerne Air Base, 30.4 nm (56.3 km) N. Retrieved 2020/09/23 17:00 UTC (13 hours ago):

TAF LSMP 231625Z 2317/2423 VRB03KT 9999 FEW025 SCT080 BECMG 2322/2401 22012KT TEMPO 2400/2402 SHRA SCT045TCU PROB40 TEMPO 2414/2421 SHRA SCT045TCU PROB30 2417/2419 TSRA SCT045CB